Atmospheric History
12/08/2018 19:16  to  12/9/2018 19:16
Change End Date:
To complete the export process:
1) Select all of the data below
2) Copy the data to the clipboard
3) Open a word processor such as Notepad
4) Paste the data into the word processor
5) Save the file

Date/Time (MST), AirTemp, RH, Dewpoint ,AvgWindSpeed, GustWindSpeed, WindDirection, PrecipType, PrecipIntensity, PrecipAccumulation, PrecipRate ,Visibility
12/09/2018 19:12, 34, 62, 22 ,9, 14, N, None, None, 0.01, 0 ,6560
12/09/2018 19:02, 26, 79, 20 ,11, 15, N, None, None, 0.01, 0 ,6560
12/09/2018 19:00, 25, 80, 20 ,12, 15, N, None, None, 0.01, 0 ,6560
12/09/2018 18:52, 28, 72, 20 ,9, 12, N, None, None, 0.01, 0 ,6560
12/09/2018 18:42, 25, 76, 19 ,2, 14, N, None, None, 0.01, 0 ,6560
12/09/2018 18:32, 26, 75, 19 ,14, 17, N, None, None, 0.01, 0 ,6560
12/09/2018 18:30, 26, 77, 20 ,11, 14, N, None, None, 0.01, 0 ,6560
12/09/2018 18:21, 23, 82, 18 ,7, 12, N, None, None, 0.01, 0 ,6560
12/09/2018 18:11, 22, 81, 17 ,9, 10, N, None, None, 0.01, 0 ,6560
12/09/2018 18:01, 22, 83, 17 ,6, 9, N, None, None, 0.01, 0 ,6560
12/09/2018 18:00, 22, 82, 17 ,6, 9, N, None, None, 0.01, 0 ,6560
12/09/2018 17:51, 22, 83, 17 ,7, 8, N, None, None, 0.01, 0 ,6560
12/09/2018 17:41, 22, 81, 17 ,7, 9, N, None, None, 0.01, 0 ,6560
12/09/2018 17:31, 23, 79, 17 ,7, 7, N, None, None, 0.01, 0 ,6560
12/09/2018 17:30, 23, 79, 17 ,7, 7, N, None, None, 0.01, 0 ,6560
12/09/2018 17:21, 23, 79, 17 ,6, 7, N, None, None, 0.01, 0 ,6560
12/09/2018 17:11, 22, 80, 17 ,5, 8, N, None, None, 0.01, 0 ,6560
12/09/2018 17:01, 24, 80, 19 ,4, 6, N, None, None, 0.01, 0 ,6560
12/09/2018 17:00, 24, 80, 19 ,4, 7, N, None, None, 0.01, 0 ,6560
12/09/2018 16:51, 23, 83, 18 ,9, 14, N, None, None, 0.01, 0 ,6560
12/09/2018 16:41, 21, 84, 17 ,9, 11, N, None, None, 0.01, 0 ,6560
12/09/2018 16:31, 23, 81, 18 ,3, 12, N, None, None, 0.01, 0 ,6560
12/09/2018 16:30, 23, 81, 18 ,4, 12, N, None, None, 0.01, 0 ,6560
12/09/2018 16:21, 25, 78, 19 ,12, 14, N, None, None, 0.01, 0 ,6560
12/09/2018 16:11, 25, 79, 19 ,7, 11, N, None, None, 0.01, 0 ,6560
12/09/2018 16:01, 26, 78, 20 ,11, 12, N, None, None, 0.01, 0 ,6560
12/09/2018 16:00, 26, 78, 20 ,11, 12, N, None, None, 0.01, 0 ,6560
12/09/2018 15:51, 26, 78, 20 ,9, 12, N, None, None, 0.01, 0 ,6560
12/09/2018 15:41, 27, 75, 20 ,10, 12, N, None, None, 0.01, 0 ,6560
12/09/2018 15:31, 27, 74, 20 ,10, 11, N, None, None, 0.01, 0 ,6560
12/09/2018 15:30, 27, 74, 20 ,9, 11, N, None, None, 0.01, 0 ,6560
12/09/2018 15:20, 27, 75, 21 ,11, 11, N, None, None, 0.01, 0 ,6560
12/09/2018 15:10, 29, 72, 21 ,9, 11, N, None, None, 0.01, 0 ,6560
12/09/2018 15:00, 30, 68, 21 ,9, 11, N, None, None, 0.01, 0 ,6560
12/09/2018 15:00, 30, 68, 21 ,9, 11, N, None, None, 0.01, 0 ,6560
12/09/2018 14:50, 31, 66, 21 ,10, 11, N, None, None, 0.01, 0 ,6560
12/09/2018 14:40, 31, 64, 20 ,11, 12, N, None, None, 0.01, 0 ,6560
12/09/2018 14:30, 32, 61, 20 ,12, 14, N, None, None, 0.01, 0 ,6560
12/09/2018 14:30, 32, 61, 20 ,12, 14, N, None, None, 0.01, 0 ,6560
12/09/2018 14:20, 30, 66, 20 ,9, 11, N, None, None, 0.01, 0 ,6560
12/09/2018 14:10, 30, 67, 21 ,7, 10, N, None, None, 0.01, 0 ,6560
12/09/2018 14:00, 30, 66, 21 ,9, 13, N, None, None, 0.01, 0 ,6560
12/09/2018 14:00, 30, 66, 21 ,9, 13, N, None, None, 0.01, 0 ,6560
12/09/2018 13:50, 31, 65, 20 ,12, 14, N, None, None, 0.01, 0 ,6560
12/09/2018 13:40, 30, 68, 21 ,9, 11, N, None, None, 0.01, 0 ,6560
12/09/2018 13:30, 29, 70, 21 ,9, 11, N, None, None, 0.01, 0 ,6560
12/09/2018 13:30, 29, 70, 21 ,9, 11, N, None, None, 0.01, 0 ,6560
12/09/2018 13:20, 29, 70, 20 ,10, 12, N, None, None, 0.01, 0 ,6560
12/09/2018 13:10, 29, 69, 20 ,9, 11, N, None, None, 0.01, 0 ,6560
12/09/2018 13:00, 28, 71, 20 ,9, 14, N, None, None, 0.01, 0 ,6560
12/09/2018 13:00, 28, 71, 20 ,9, 15, N, None, None, 0.01, 0 ,6560
12/09/2018 12:50, 28, 71, 20 ,14, 16, N, None, None, 0.01, 0 ,6560
12/09/2018 12:40, 28, 69, 19 ,7, 9, N, None, None, 0.01, 0 ,6560
12/09/2018 12:30, 28, 66, 19 ,7, 11, N, None, None, 0.01, 0 ,6560
12/09/2018 12:29, 28, 66, 19 ,8, 11, N, None, None, 0.01, 0 ,6560
12/09/2018 12:19, 28, 64, 18 ,6, 9, N, None, None, 0.01, 0 ,6560
12/09/2018 12:09, 28, 65, 18 ,7, 9, N, None, None, 0.01, 0 ,6560
12/09/2018 12:00, 29, 62, 18 ,4, 7, N, None, None, 0.01, 0 ,6560
12/09/2018 11:59, 29, 62, 17 ,4, 10, N, None, None, 0.01, 0 ,6560
12/09/2018 11:49, 28, 64, 18 ,7, 9, N, None, None, 0.01, 0 ,6560
12/09/2018 11:39, 27, 66, 17 ,4, 7, N, None, None, 0.01, 0 ,6560
12/09/2018 11:30, 26, 67, 17 ,6, 9, N, None, None, 0.01, 0 ,6560
12/09/2018 11:29, 26, 67, 17 ,6, 9, N, None, None, 0.01, 0 ,6560
12/09/2018 11:19, 25, 68, 17 ,1, 7, N, None, None, 0.01, 0 ,6560
12/09/2018 11:09, 23, 73, 15 ,7, 12, N, None, None, 0.01, 0 ,6560
12/09/2018 11:00, 22, 73, 15 ,10, 16, N, None, None, 0.01, 0 ,6560
12/09/2018 10:59, 22, 74, 15 ,11, 16, N, None, None, 0.01, 0 ,6560
12/09/2018 10:49, 21, 75, 15 ,11, 14, N, None, None, 0.01, 0 ,6560
12/09/2018 10:39, 20, 75, 14 ,9, 12, N, None, None, 0.01, 0 ,6560
12/09/2018 10:30, 20, 75, 14 ,9, 13, N, None, None, 0.01, 0 ,6560
12/09/2018 10:29, 20, 75, 14 ,10, 13, N, None, None, 0.01, 0 ,6560
12/09/2018 10:19, 21, 75, 14 ,12, 14, N, None, None, 0.01, 0 ,6560
12/09/2018 10:09, 20, 77, 14 ,12, 14, N, None, None, 0.01, 0 ,6560
12/09/2018 10:00, 19, 78, 13 ,12, 16, N, None, None, 0.01, 0 ,6560
12/09/2018 09:59, 19, 78, 13 ,12, 16, N, None, None, 0.01, 0 ,6560
12/09/2018 09:49, 18, 80, 13 ,15, 19, N, None, None, 0.01, 0 ,6560
12/09/2018 09:38, 16, 84, 12 ,16, 17, N, None, None, 0.01, 0 ,6560
12/09/2018 09:30, 14, 85, 10 ,15, 17, N, None, None, 0.01, 0 ,6560
12/09/2018 09:28, 13, 85, 10 ,15, 17, N, None, None, 0.01, 0 ,6560
12/09/2018 09:18, 13, 86, 10 ,16, 22, N, None, None, 0.01, 0 ,6560
12/09/2018 09:08, 12, 87, 9 ,19, 20, N, None, None, 0.01, 0 ,6560
12/09/2018 09:00, 12, 86, 9 ,19, 21, N, None, None, 0.01, 0 ,6560
12/09/2018 08:58, 12, 87, 9 ,18, 21, N, None, None, 0.01, 0 ,6560
12/09/2018 08:48, 12, 86, 9 ,21, 23, N, None, None, 0.01, 0 ,6560
12/09/2018 08:38, 11, 87, 8 ,17, 19, N, None, None, 0.01, 0 ,6560
12/09/2018 08:30, 11, 87, 8 ,12, 13, N, None, None, 0.01, 0 ,6560
12/09/2018 08:28, 11, 87, 8 ,11, 13, N, None, None, 0.01, 0 ,6560
12/09/2018 08:18, 11, 86, 8 ,7, 11, N, None, None, 0.01, 0 ,6560
12/09/2018 08:08, 12, 87, 9 ,9, 12, N, None, None, 0.01, 0 ,6560
12/09/2018 08:00, 11, 88, 8 ,10, 14, N, None, None, 0.01, 0 ,6560
12/09/2018 07:58, 11, 87, 8 ,9, 14, N, None, None, 0.01, 0 ,6560
12/09/2018 07:48, 12, 88, 9 ,11, 15, N, None, None, 0.01, 0 ,6560
12/09/2018 07:38, 11, 86, 8 ,13, 17, N, None, None, 0.01, 0 ,6560
12/09/2018 07:30, 11, 86, 8 ,12, 14, N, None, None, 0.01, 0 ,6560
12/09/2018 07:28, 11, 87, 8 ,12, 14, N, None, None, 0.01, 0 ,6560
12/09/2018 07:18, 11, 85, 7 ,9, 12, N, None, None, 0.01, 0 ,6560
12/09/2018 07:08, 12, 85, 8 ,10, 12, N, None, None, 0.01, 0 ,6560
12/09/2018 07:00, 13, 83, 9 ,10, 13, N, None, None, 0.01, 0 ,6560
12/09/2018 06:58, 13, 86, 10 ,11, 13, N, None, None, 0.01, 0 ,6560
12/09/2018 06:47, 11, 86, 8 ,11, 14, N, None, None, 0.01, 0 ,6560
12/09/2018 06:37, 11, 85, 8 ,12, 15, N, None, None, 0.01, 0 ,6560
12/09/2018 06:30, 11, 85, 8 ,13, 15, N, None, None, 0.01, 0 ,6560
12/09/2018 06:27, 12, 85, 8 ,14, 15, N, None, None, 0.01, 0 ,6560
12/09/2018 06:17, 12, 84, 8 ,13, 14, N, None, None, 0.01, 0 ,6560
12/09/2018 06:07, 12, 84, 8 ,10, 15, N, None, None, 0.01, 0 ,6560
12/09/2018 06:00, 13, 83, 9 ,12, 15, N, None, None, 0.01, 0 ,6560
12/09/2018 05:57, 13, 82, 9 ,12, 14, N, None, None, 0.01, 0 ,6560
12/09/2018 05:47, 14, 83, 10 ,9, 11, N, None, None, 0.01, 0 ,6560
12/09/2018 05:37, 13, 85, 9 ,7, 9, N, None, None, 0.01, 0 ,6560
12/09/2018 05:30, 12, 83, 8 ,1, 4, N, None, None, 0.01, 0 ,6560
12/09/2018 05:27, 12, 83, 8 ,1, 3, N, None, None, 0.01, 0 ,6560
12/09/2018 05:17, 13, 82, 8 ,1, 2, N, None, None, 0.01, 0 ,6560
12/09/2018 05:07, 14, 81, 9 ,1, 4, N, None, None, 0.01, 0 ,6560
12/09/2018 05:00, 13, 82, 9 ,0, 3, N, None, None, 0.01, 0 ,6560
12/09/2018 04:57, 14, 81, 9 ,2, 6, N, None, None, 0.01, 0 ,6560
12/09/2018 04:47, 15, 82, 10 ,7, 8, N, None, None, 0.01, 0 ,6560
12/09/2018 04:37, 16, 79, 11 ,4, 7, N, None, None, 0.01, 0 ,6560
12/09/2018 04:30, 16, 79, 11 ,4, 7, N, None, None, 0.01, 0 ,6560
12/09/2018 04:27, 16, 81, 11 ,3, 7, N, None, None, 0.01, 0 ,6560
12/09/2018 04:17, 16, 80, 11 ,5, 7, N, None, None, 0.01, 0 ,6560
12/09/2018 04:06, 16, 81, 11 ,0, 8, N, None, None, 0.01, 0 ,6560
12/09/2018 04:00, 17, 80, 12 ,6, 11, N, None, None, 0.01, 0 ,6560
12/09/2018 03:56, 17, 79, 12 ,7, 12, N, None, None, 0.01, 0 ,6560
12/09/2018 03:46, 18, 78, 12 ,10, 11, N, None, None, 0.01, 0 ,6560
12/09/2018 03:36, 19, 76, 12 ,7, 12, N, None, None, 0.01, 0 ,6560
12/09/2018 03:30, 18, 79, 13 ,11, 12, N, None, None, 0.01, 0 ,6560
12/09/2018 03:26, 18, 79, 12 ,9, 12, N, None, None, 0.01, 0 ,6560
12/09/2018 03:16, 19, 76, 13 ,12, 13, N, None, None, 0.01, 0 ,6560
12/09/2018 03:06, 20, 78, 14 ,6, 7, N, None, None, 0.01, 0 ,6560
12/09/2018 03:00, 20, 75, 14 ,2, 6, N, None, None, 0.01, 0 ,6560
12/09/2018 02:56, 22, 72, 14 ,4, 6, N, None, None, 0.01, 0 ,6560
12/09/2018 02:46, 23, 73, 16 ,6, 10, N, None, None, 0.01, 0 ,6560
12/09/2018 02:36, 24, 72, 17 ,10, 16, N, None, None, 0.01, 0 ,6560
12/09/2018 02:30, 24, 72, 17 ,12, 16, N, None, None, 0.01, 0 ,6560
12/09/2018 02:26, 24, 73, 16 ,12, 14, N, None, None, 0.01, 0 ,6560
12/09/2018 02:16, 24, 72, 16 ,9, 14, N, None, None, 0.01, 0 ,6560
12/09/2018 02:06, 24, 71, 16 ,4, 12, N, None, None, 0.01, 0 ,6560
12/09/2018 02:00, 25, 70, 16 ,7, 10, N, None, None, 0.01, 0 ,6560
12/09/2018 01:56, 25, 68, 16 ,6, 8, N, None, None, 0.01, 0 ,6560
12/09/2018 01:46, 25, 70, 17 ,6, 12, N, None, None, 0.01, 0 ,6560
12/09/2018 01:36, 25, 68, 16 ,7, 14, N, None, None, 0.01, 0 ,6560
12/09/2018 01:30, 25, 68, 16 ,7, 15, N, None, None, 0.01, 0 ,6560
12/09/2018 01:26, 26, 67, 17 ,11, 15, N, None, None, 0.01, 0 ,6560
12/09/2018 01:16, 28, 61, 16 ,4, 21, N, None, None, 0.01, 0 ,6560
12/09/2018 01:05, 29, 62, 18 ,13, 15, N, None, None, 0.01, 0 ,6560
12/09/2018 01:00, 28, 61, 17 ,12, 15, N, None, None, 0.01, 0 ,6560
12/09/2018 00:55, 28, 62, 17 ,11, 15, N, None, None, 0.01, 0 ,6560
12/09/2018 00:45, 31, 57, 18 ,8, 14, N, None, None, 0.01, 0 ,6560
12/09/2018 00:35, 31, 58, 18 ,10, 16, N, None, None, 0.01, 0 ,6560
12/09/2018 00:30, 30, 59, 18 ,10, 16, N, None, None, 0.01, 0 ,6560
12/09/2018 00:25, 30, 58, 17 ,9, 16, N, None, None, 0.01, 0 ,6560
12/09/2018 00:15, 29, 59, 17 ,12, 19, N, None, None, 0.01, 0 ,6560
12/09/2018 00:05, 29, 59, 17 ,12, 17, N, None, None, 0.01, 0 ,6560
12/09/2018 00:00, 30, 58, 17 ,11, 17, N, None, None, 0.01, 0 ,6560
12/08/2018 23:55, 30, 57, 17 ,11, 21, N, None, None, 0.01, 0 ,6560
12/08/2018 23:45, 30, 56, 17 ,17, 27, N, None, None, 0.01, 0 ,6560
12/08/2018 23:35, 30, 56, 17 ,15, 21, N, None, None, 0.01, 0 ,6560
12/08/2018 23:30, 31, 55, 17 ,14, 27, N, None, None, 0.01, 0 ,6560
12/08/2018 23:25, 31, 55, 16 ,16, 27, N, None, None, 0.01, 0 ,6560
12/08/2018 23:15, 31, 54, 16 ,12, 19, N, None, None, 0.01, 0 ,6560
12/08/2018 23:05, 29, 57, 16 ,7, 13, N, None, None, 0.01, 0 ,6560
12/08/2018 23:00, 29, 58, 16 ,8, 13, N, None, None, 0.01, 0 ,6560
12/08/2018 22:55, 26, 65, 16 ,9, 13, N, None, None, 0.01, 0 ,6560
12/08/2018 22:45, 25, 65, 15 ,10, 14, N, None, None, 0.01, 0 ,6560
12/08/2018 22:35, 25, 66, 15 ,11, 14, N, None, None, 0.01, 0 ,6560
12/08/2018 22:30, 24, 67, 15 ,11, 19, N, None, None, 0.01, 0 ,6560
12/08/2018 22:24, 25, 66, 15 ,14, 19, N, None, None, 0.01, 0 ,6560
12/08/2018 22:14, 24, 67, 15 ,9, 14, N, None, None, 0.01, 0 ,6560
12/08/2018 22:04, 24, 67, 15 ,10, 15, N, None, None, 0.01, 0 ,6560
12/08/2018 22:00, 24, 68, 15 ,8, 13, N, None, None, 0.01, 0 ,6560
12/08/2018 21:54, 22, 70, 14 ,7, 11, N, None, None, 0.01, 0 ,6560
12/08/2018 21:44, 22, 70, 14 ,7, 12, N, None, None, 0.01, 0 ,6560
12/08/2018 21:34, 19, 74, 13 ,6, 9, N, None, None, 0.01, 0 ,6560
12/08/2018 21:30, 19, 79, 13 ,5, 9, N, None, None, 0.01, 0 ,6560
12/08/2018 21:24, 13, 88, 10 ,2, 6, N, None, None, 0.01, 0 ,6560
12/08/2018 21:14, 13, 84, 9 ,5, 6, N, None, None, 0.01, 0 ,6560
12/08/2018 21:04, 14, 80, 9 ,2, 4, N, None, None, 0.01, 0 ,6560
12/08/2018 21:00, 13, 81, 8 ,2, 5, N, None, None, 0.01, 0 ,6560
12/08/2018 20:54, 13, 82, 9 ,3, 5, N, None, None, 0.01, 0 ,6560
12/08/2018 20:44, 13, 89, 10 ,2, 4, N, None, None, 0.01, 0 ,6560
12/08/2018 20:34, 11, 85, 7 ,0, 3, N, None, None, 0.01, 0 ,6560
12/08/2018 20:30, 11, 86, 8 ,2, 6, N, None, None, 0.01, 0 ,6560
12/08/2018 20:24, 10, 85, 7 ,4, 7, N, None, None, 0.01, 0 ,6560
12/08/2018 20:14, 11, 86, 8 ,3, 7, N, None, None, 0.01, 0 ,6560
12/08/2018 20:04, 11, 86, 8 ,7, 8, N, None, None, 0.01, 0 ,6560
12/08/2018 20:00, 11, 84, 7 ,2, 8, N, None, None, 0.01, 0 ,6560
12/08/2018 19:53, 11, 86, 8 ,6, 7, N, None, None, 0.01, 0 ,6560
12/08/2018 19:43, 13, 87, 10 ,2, 7, N, None, None, 0.01, 0 ,6560
12/08/2018 19:33, 11, 88, 8 ,7, 9, N, None, None, 0.01, 0 ,6560
12/08/2018 19:30, 11, 85, 7 ,7, 9, N, None, None, 0.01, 0 ,6560
12/08/2018 19:23, 12, 88, 9 ,7, 9, N, None, None, 0.01, 0 ,6560
Change End Date:

Copyright © 1998-2015 Vaisala, Inc.
All Rights Reserved
Send comments about the data to:
SCAN Web ® is a registered trademark of Vaisala, Inc.
SCAN Web Version 6.0